Time;durP1;ratioP1;P1;durP2;ratioP2;P2;SDS_P1;SDS_P2;PMS_P1;PMS_P2;Temp;Humidity;BMP_temperature;BMP_pressure;BME280_temperature;BME280_humidity;BME280_pressure;Samples;Min_cycle;Max_cycle;Signal;HPM_P1;HPM_P2
2022/03/26 00:02:03;;;;;;;37.67;17.80;;;9.00;81.20;;;;;;5028493;28;20021;-58
2022/03/26 00:04:28;;;;;;;33.53;18.60;;;8.80;82.10;;;;;;5022320;28;20022;-56
2022/03/26 00:06:54;;;;;;;31.40;17.90;;;8.70;83.00;;;;;;5034338;28;20025;-57
2022/03/26 00:09:19;;;;;;;38.15;19.60;;;8.40;83.50;;;;;;5029611;28;20510;-57
2022/03/26 00:11:45;;;;;;;38.78;17.42;;;8.30;84.00;;;;;;5029198;28;20033;-57
2022/03/26 00:14:11;;;;;;;44.20;18.20;;;8.20;84.60;;;;;;5024641;28;20031;-57
2022/03/26 00:16:36;;;;;;;42.92;18.27;;;8.10;85.00;;;;;;5021081;28;20504;-55
2022/03/26 00:19:02;;;;;;;35.20;19.42;;;8.00;85.50;;;;;;5019708;28;20176;-58
2022/03/26 00:21:28;;;;;;;40.05;18.67;;;7.90;86.20;;;;;;5019440;28;20054;-57
2022/03/26 00:23:53;;;;;;;37.47;18.92;;;7.80;86.70;;;;;;5023998;28;20025;-57
2022/03/26 00:26:19;;;;;;;40.33;18.67;;;7.70;87.10;;;;;;5020416;28;20029;-58
2022/03/26 00:28:45;;;;;;;38.10;18.52;;;7.60;87.50;;;;;;5026319;28;20032;-57
2022/03/26 00:31:12;;;;;;;38.78;16.48;;;7.60;87.50;;;;;;5018758;28;20026;-59
2022/03/26 00:33:38;;;;;;;39.72;19.63;;;7.70;87.50;;;;;;5021057;28;20037;-55
2022/03/26 00:36:04;;;;;;;41.25;18.63;;;7.80;87.20;;;;;;5021024;28;20030;-54
2022/03/26 00:38:29;;;;;;;43.72;19.42;;;7.90;87.00;;;;;;5022672;28;20033;-56
2022/03/26 00:40:55;;;;;;;40.35;18.80;;;8.00;86.60;;;;;;5042009;28;20024;-58
2022/03/26 00:43:20;;;;;;;40.78;17.90;;;8.00;86.10;;;;;;5006592;28;20400;-58
2022/03/26 00:45:46;;;;;;;35.78;17.30;;;8.10;86.00;;;;;;5018898;28;20436;-59
2022/03/26 00:48:11;;;;;;;39.38;19.08;;;8.10;86.20;;;;;;4998209;28;20025;-57
2022/03/26 00:50:37;;;;;;;40.53;17.67;;;8.00;86.40;;;;;;5037605;28;20029;-57
2022/03/26 00:53:03;;;;;;;39.25;19.10;;;8.00;86.70;;;;;;5029917;28;20025;-56
2022/03/26 00:55:29;;;;;;;41.45;20.98;;;8.00;86.80;;;;;;5030214;28;20388;-58
2022/03/26 00:57:54;;;;;;;34.53;18.02;;;8.00;86.80;;;;;;5026866;28;20476;-60
2022/03/26 01:00:20;;;;;;;37.25;18.92;;;7.90;86.90;;;;;;5027242;28;20029;-57
2022/03/26 01:02:46;;;;;;;37.45;18.08;;;7.90;87.00;;;;;;5024411;28;20791;-60
2022/03/26 01:05:11;;;;;;;39.40;19.05;;;7.90;87.10;;;;;;5024495;28;20026;-58
2022/03/26 01:07:37;;;;;;;38.70;18.60;;;7.90;87.00;;;;;;5014360;28;20033;-57
2022/03/26 01:10:06;;;;;;;43.95;20.48;;;7.90;87.00;;;;;;5027873;28;20579;-53
2022/03/26 01:12:32;;;;;;;37.72;19.05;;;7.90;87.10;;;;;;5024188;28;20057;-58
2022/03/26 01:14:58;;;;;;;40.60;20.17;;;8.00;87.10;;;;;;5030016;28;20110;-57
2022/03/26 01:17:23;;;;;;;42.30;18.95;;;7.90;87.50;;;;;;5018678;28;20041;-58
2022/03/26 01:19:50;;;;;;;42.28;18.23;;;7.80;88.30;;;;;;5015961;28;20026;-55
2022/03/26 01:22:15;;;;;;;37.40;18.67;;;7.70;88.40;;;;;;5011884;28;20038;-58
2022/03/26 01:24:41;;;;;;;41.92;19.70;;;7.70;88.30;;;;;;5013788;28;20026;-58
2022/03/26 01:27:07;;;;;;;35.85;18.85;;;7.70;88.50;;;;;;5015668;28;20100;-58
2022/03/26 01:29:33;;;;;;;43.20;20.08;;;7.60;89.10;;;;;;5018775;28;20040;-59
2022/03/26 01:31:59;;;;;;;39.53;18.98;;;7.60;89.50;;;;;;5016610;28;20022;-59
2022/03/26 01:34:26;;;;;;;39.95;19.60;;;7.50;89.80;;;;;;5028000;28;20033;-56
2022/03/26 01:36:51;;;;;;;43.97;20.27;;;7.40;90.10;;;;;;5028247;28;20028;-60
2022/03/26 01:39:18;;;;;;;40.42;19.88;;;7.30;90.40;;;;;;5023009;28;20030;-58
2022/03/26 01:41:45;;;;;;;41.55;19.38;;;7.20;90.70;;;;;;5002542;28;20048;-57
2022/03/26 01:44:14;;;;;;;37.40;18.80;;;7.10;91.00;;;;;;5009322;28;20512;-58
2022/03/26 01:46:53;;;;;;;36.67;19.52;;;7.00;91.30;;;;;;5021229;28;20045;-58
2022/03/26 01:49:19;;;;;;;51.78;19.98;;;6.90;91.70;;;;;;5023826;28;20029;-56
2022/03/26 01:51:45;;;;;;;36.55;18.95;;;6.80;91.90;;;;;;5027697;28;20034;-58
2022/03/26 01:54:12;;;;;;;39.10;19.00;;;6.70;92.20;;;;;;5018776;28;20037;-56
2022/03/26 01:56:39;;;;;;;48.95;19.98;;;6.70;92.30;;;;;;5020026;28;20453;-57
2022/03/26 01:59:05;;;;;;;39.53;19.65;;;6.70;92.30;;;;;;5017052;28;20030;-58
2022/03/26 02:01:34;;;;;;;43.30;20.20;;;6.70;92.40;;;;;;5020821;28;20017;-59
2022/03/26 02:04:00;;;;;;;42.35;20.00;;;6.70;92.50;;;;;;5028142;28;20033;-57
2022/03/26 02:06:33;;;;;;;47.95;20.65;;;6.60;92.70;;;;;;5031229;28;20022;-57
2022/03/26 02:09:03;;;;;;;40.80;20.23;;;6.60;92.90;;;;;;5029884;28;20415;-59
2022/03/26 02:11:35;;;;;;;46.78;20.30;;;6.50;93.20;;;;;;5017209;28;20036;-58
2022/03/26 02:14:02;;;;;;;38.35;18.40;;;6.40;93.40;;;;;;5024209;28;20048;-58
2022/03/26 02:16:29;;;;;;;44.05;21.50;;;6.30;93.70;;;;;;5026578;28;20029;-58
2022/03/26 02:18:55;;;;;;;52.08;21.27;;;6.20;94.10;;;;;;5018605;28;20026;-57
2022/03/26 02:21:22;;;;;;;36.63;20.05;;;6.10;94.40;;;;;;5029293;28;20030;-58
2022/03/26 02:23:48;;;;;;;40.63;19.25;;;6.00;94.80;;;;;;5019614;28;20037;-58
2022/03/26 02:26:25;;;;;;;38.20;18.35;;;5.90;95.10;;;;;;5013900;28;20029;-59
2022/03/26 02:28:54;;;;;;;47.03;20.45;;;5.90;95.40;;;;;;5018616;28;20064;-59
2022/03/26 02:31:21;;;;;;;40.10;19.60;;;5.80;95.60;;;;;;5029045;28;20064;-56
2022/03/26 02:33:47;;;;;;;44.08;19.65;;;5.80;95.80;;;;;;5027234;28;20064;-58
2022/03/26 02:36:13;;;;;;;46.90;19.60;;;5.80;96.00;;;;;;5012166;28;20080;-58
2022/03/26 02:38:39;;;;;;;44.05;21.33;;;5.80;96.20;;;;;;5016717;28;20109;-59
2022/03/26 02:41:06;;;;;;;43.10;21.23;;;5.80;96.30;;;;;;5024767;28;20026;-58
2022/03/26 02:43:32;;;;;;;39.58;19.67;;;5.80;96.40;;;;;;5007958;28;20081;-59
2022/03/26 02:45:58;;;;;;;40.15;21.13;;;5.80;96.40;;;;;;5017343;28;20535;-56
2022/03/26 02:48:23;;;;;;;45.88;20.77;;;5.80;96.60;;;;;;5014304;28;20036;-57
2022/03/26 02:50:49;;;;;;;49.33;21.90;;;5.70;96.80;;;;;;5010994;28;20409;-58
2022/03/26 02:53:15;;;;;;;48.33;21.88;;;5.60;97.00;;;;;;5014833;28;20519;-57
2022/03/26 02:55:41;;;;;;;40.15;19.90;;;5.60;97.30;;;;;;5021613;28;20030;-59
2022/03/26 02:58:08;;;;;;;45.33;21.88;;;5.50;97.60;;;;;;5012957;28;20160;-59
2022/03/26 03:00:34;;;;;;;44.20;21.30;;;5.40;97.90;;;;;;5020020;28;20115;-57
2022/03/26 03:03:00;;;;;;;45.80;21.25;;;5.40;98.00;;;;;;5021030;28;20040;-56
2022/03/26 03:05:26;;;;;;;52.42;20.92;;;5.40;98.10;;;;;;5030765;28;20033;-58
2022/03/26 03:07:53;;;;;;;50.85;20.27;;;5.50;98.10;;;;;;5011180;28;20021;-59
2022/03/26 03:10:18;;;;;;;43.22;21.15;;;5.60;97.90;;;;;;5010759;28;20034;-58
2022/03/26 03:12:48;;;;;;;42.67;20.65;;;5.70;97.60;;;;;;5024538;28;20109;-58
2022/03/26 03:15:17;;;;;;;40.60;20.13;;;5.80;97.40;;;;;;5019441;28;20485;-57
2022/03/26 03:17:42;;;;;;;41.72;19.38;;;5.80;97.30;;;;;;5027116;28;20061;-57
2022/03/26 03:20:09;;;;;;;42.53;20.05;;;5.70;97.40;;;;;;5021469;28;20053;-57
2022/03/26 03:22:36;;;;;;;46.97;20.77;;;5.70;97.60;;;;;;5010599;28;20042;-57
2022/03/26 03:25:03;;;;;;;43.03;21.35;;;5.60;97.80;;;;;;5023337;28;20034;-53
2022/03/26 03:27:28;;;;;;;37.90;20.13;;;5.50;98.10;;;;;;5025060;28;20026;-58
2022/03/26 03:29:54;;;;;;;41.33;20.23;;;5.40;98.40;;;;;;5021204;28;20469;-57
2022/03/26 03:32:20;;;;;;;41.65;21.30;;;5.30;98.70;;;;;;5028775;28;20033;-58
2022/03/26 03:34:45;;;;;;;43.83;21.27;;;5.20;98.80;;;;;;5021373;28;20417;-58
2022/03/26 03:37:11;;;;;;;43.95;20.42;;;5.10;99.20;;;;;;5015347;28;20041;-59
2022/03/26 03:39:37;;;;;;;42.78;21.67;;;5.10;99.90;;;;;;5012409;28;20026;-58
2022/03/26 03:42:04;;;;;;;50.50;23.98;;;5.00;99.80;;;;;;5010301;28;20479;-57
2022/03/26 03:44:30;;;;;;;44.58;22.60;;;5.00;99.90;;;;;;5010490;28;20068;-57
2022/03/26 03:46:56;;;;;;;48.38;21.30;;;5.00;99.90;;;;;;5018150;28;20069;-59
2022/03/26 03:49:22;;;;;;;42.92;20.60;;;4.90;99.90;;;;;;5019994;28;20108;-58
2022/03/26 03:51:47;;;;;;;42.08;20.27;;;4.90;99.90;;;;;;5018347;28;20167;-60
2022/03/26 03:54:14;;;;;;;48.60;22.05;;;4.90;99.90;;;;;;5021773;28;20396;-60
2022/03/26 03:56:39;;;;;;;40.67;20.40;;;4.80;99.90;;;;;;5013713;28;20398;-57
2022/03/26 03:59:05;;;;;;;50.67;22.30;;;4.80;99.90;;;;;;5017278;28;20030;-58
2022/03/26 04:01:31;;;;;;;49.72;22.25;;;4.70;99.90;;;;;;5031461;28;20041;-58
2022/03/26 04:03:57;;;;;;;43.70;22.52;;;4.70;99.90;;;;;;5018132;28;20045;-57
2022/03/26 04:06:22;;;;;;;47.17;20.13;;;4.70;99.90;;;;;;5013718;28;20655;-57
2022/03/26 04:08:48;;;;;;;46.67;21.13;;;4.70;99.90;;;;;;5018591;28;20029;-57
2022/03/26 04:11:13;;;;;;;41.97;21.23;;;4.70;99.90;;;;;;5017866;28;20040;-59
2022/03/26 04:13:39;;;;;;;51.28;22.88;;;4.60;99.90;;;;;;5028521;28;20044;-57
2022/03/26 04:16:05;;;;;;;49.25;22.45;;;4.60;99.90;;;;;;5013484;28;20440;-57
2022/03/26 04:18:30;;;;;;;43.88;21.63;;;4.60;99.90;;;;;;5020496;28;20026;-57
2022/03/26 04:20:56;;;;;;;44.30;22.40;;;4.60;99.90;;;;;;5021457;28;20053;-57
2022/03/26 04:23:22;;;;;;;44.60;23.67;;;4.60;99.90;;;;;;5018069;28;20033;-58
2022/03/26 04:25:48;;;;;;;48.78;22.35;;;4.50;99.90;;;;;;5015374;28;20037;-59
2022/03/26 04:28:14;;;;;;;44.15;21.50;;;4.40;99.90;;;;;;5016223;28;20033;-60
2022/03/26 04:30:40;;;;;;;44.42;21.02;;;4.40;99.90;;;;;;5015758;28;20455;-58
2022/03/26 04:33:06;;;;;;;45.53;22.27;;;4.30;99.90;;;;;;5021555;28;20033;-57
2022/03/26 04:35:31;;;;;;;47.03;21.50;;;4.30;99.90;;;;;;5031078;28;20492;-57
2022/03/26 04:37:57;;;;;;;53.05;22.48;;;4.30;99.90;;;;;;5031472;28;20052;-60
2022/03/26 04:40:24;;;;;;;48.30;22.13;;;4.30;99.90;;;;;;5017580;28;20112;-57
2022/03/26 04:42:50;;;;;;;49.92;22.70;;;4.30;99.90;;;;;;5013786;28;20026;-60
2022/03/26 04:45:15;;;;;;;46.60;22.92;;;4.30;99.90;;;;;;5015827;28;20040;-60
2022/03/26 04:47:41;;;;;;;50.00;21.50;;;4.20;99.90;;;;;;5017389;28;20038;-60
2022/03/26 04:50:08;;;;;;;45.92;22.58;;;4.20;99.90;;;;;;5021007;28;20034;-60
2022/03/26 04:52:34;;;;;;;52.35;23.83;;;4.10;99.90;;;;;;5025775;28;20044;-57
2022/03/26 04:55:00;;;;;;;49.85;22.38;;;4.10;99.90;;;;;;5021844;28;20042;-59
2022/03/26 04:57:25;;;;;;;44.88;23.65;;;4.00;99.90;;;;;;5012499;28;20033;-57
2022/03/26 04:59:51;;;;;;;43.08;21.52;;;3.90;99.90;;;;;;5013994;28;20037;-59
2022/03/26 05:02:17;;;;;;;52.55;22.02;;;3.90;99.90;;;;;;5013229;28;20036;-60
2022/03/26 05:04:42;;;;;;;46.53;22.42;;;3.90;99.90;;;;;;5028928;28;20117;-59
2022/03/26 05:09:52;;;;;;;50.10;22.83;;;3.90;99.90;;;;;;5022523;28;20084;-59
2022/03/26 05:12:18;;;;;;;44.55;22.17;;;3.90;99.90;;;;;;5014742;28;20066;-58
2022/03/26 05:14:44;;;;;;;55.10;22.90;;;4.00;99.90;;;;;;5022059;28;20030;-59
2022/03/26 05:17:10;;;;;;;48.88;22.23;;;4.00;99.90;;;;;;5010466;28;20021;-57
2022/03/26 05:19:36;;;;;;;53.17;22.63;;;4.00;99.90;;;;;;5020413;28;20108;-57
2022/03/26 05:22:02;;;;;;;59.00;23.55;;;4.00;99.90;;;;;;5015964;28;20197;-59
2022/03/26 05:24:27;;;;;;;45.78;22.13;;;4.10;99.90;;;;;;5026192;28;20437;-57
2022/03/26 05:26:53;;;;;;;51.05;21.08;;;4.10;99.90;;;;;;5017942;28;20040;-60
2022/03/26 05:29:18;;;;;;;47.30;21.45;;;4.10;99.90;;;;;;5024395;28;20034;-56
2022/03/26 05:31:44;;;;;;;46.33;23.80;;;4.10;99.90;;;;;;5025262;28;20113;-57
2022/03/26 05:34:09;;;;;;;52.25;22.63;;;4.10;99.90;;;;;;5025156;28;20029;-57
2022/03/26 05:36:35;;;;;;;52.67;23.60;;;4.10;99.90;;;;;;5018665;28;20484;-57
2022/03/26 05:39:01;;;;;;;52.00;23.50;;;4.20;99.90;;;;;;5018487;28;20025;-58
2022/03/26 05:41:27;;;;;;;45.08;21.42;;;4.30;99.90;;;;;;5027835;28;20500;-57
2022/03/26 05:43:53;;;;;;;48.97;21.98;;;4.30;99.90;;;;;;5013309;28;20049;-59
2022/03/26 05:46:19;;;;;;;49.33;24.13;;;4.40;99.90;;;;;;5030232;28;20026;-56
2022/03/26 05:48:45;;;;;;;43.75;20.90;;;4.40;99.90;;;;;;5024459;28;20033;-59
2022/03/26 05:51:11;;;;;;;51.17;22.40;;;4.50;99.90;;;;;;5011744;28;20034;-59
2022/03/26 05:53:36;;;;;;;47.38;22.90;;;4.50;99.90;;;;;;5012710;28;20030;-59
2022/03/26 05:56:02;;;;;;;47.83;21.98;;;4.50;99.90;;;;;;5011495;28;20041;-58
2022/03/26 05:58:28;;;;;;;50.60;22.33;;;4.70;99.90;;;;;;5013465;28;20476;-59
2022/03/26 06:00:53;;;;;;;49.10;23.25;;;4.70;99.90;;;;;;5021008;28;20027;-57
2022/03/26 06:03:20;;;;;;;44.45;21.50;;;4.80;99.90;;;;;;5026836;28;20076;-59
2022/03/26 06:05:46;;;;;;;50.05;24.08;;;4.90;99.90;;;;;;5011614;28;20072;-58
2022/03/26 06:08:12;;;;;;;42.53;21.25;;;5.10;99.90;;;;;;5011512;28;20083;-59
2022/03/26 06:10:37;;;;;;;50.30;22.00;;;5.30;99.90;;;;;;5012868;28;20038;-60
2022/03/26 06:13:03;;;;;;;44.35;20.92;;;5.70;99.90;;;;;;5018825;28;20442;-60
2022/03/26 06:15:28;;;;;;;41.80;22.25;;;5.90;99.90;;;;;;5011324;28;20060;-58
2022/03/26 06:17:54;;;;;;;47.85;23.35;;;6.60;99.90;;;;;;5012300;28;20029;-60
2022/03/26 06:20:19;;;;;;;45.10;21.88;;;6.90;98.60;;;;;;5012143;28;20034;-59
2022/03/26 06:22:45;;;;;;;40.08;20.25;;;7.30;97.30;;;;;;5011218;28;20022;-55
2022/03/26 06:25:10;;;;;;;46.95;23.92;;;7.50;96.80;;;;;;5012260;28;20083;-60
2022/03/26 06:27:36;;;;;;;41.58;20.77;;;7.90;95.70;;;;;;5023097;28;20116;-61
2022/03/26 06:30:02;;;;;;;41.72;21.52;;;7.90;94.80;;;;;;5026975;28;20038;-57
2022/03/26 06:32:28;;;;;;;44.03;22.63;;;8.00;94.80;;;;;;5023025;28;20025;-59
2022/03/26 06:34:54;;;;;;;45.05;21.73;;;7.90;94.40;;;;;;5016852;28;20045;-60
2022/03/26 06:37:22;;;;;;;38.72;21.00;;;7.70;94.90;;;;;;5010388;28;20117;-55
2022/03/26 06:39:48;;;;;;;43.25;20.65;;;7.60;95.00;;;;;;5010954;28;20018;-60
2022/03/26 06:42:13;;;;;;;42.10;21.25;;;7.50;95.20;;;;;;5011091;28;20037;-57
2022/03/26 06:44:39;;;;;;;40.92;20.83;;;7.50;95.60;;;;;;5004690;28;20417;-60
2022/03/26 06:47:05;;;;;;;39.63;22.45;;;7.50;95.70;;;;;;5025601;28;20041;-63
2022/03/26 06:49:32;;;;;;;41.53;21.15;;;7.80;95.60;;;;;;5016754;28;20022;-59
2022/03/26 06:51:59;;;;;;;38.35;21.10;;;8.20;95.80;;;;;;5015682;28;20030;-58
2022/03/26 06:54:25;;;;;;;39.03;22.00;;;8.60;94.90;;;;;;5028425;28;20032;-59
2022/03/26 06:56:50;;;;;;;44.00;22.45;;;9.30;93.90;;;;;;5025905;28;20037;-60
2022/03/26 06:59:17;;;;;;;45.17;22.02;;;9.80;93.00;;;;;;5022184;28;20030;-61
2022/03/26 07:01:44;;;;;;;37.67;21.17;;;10.40;92.10;;;;;;5018414;28;20030;-58
2022/03/26 07:04:09;;;;;;;34.95;20.73;;;11.20;90.80;;;;;;5017343;28;20100;-60
2022/03/26 07:06:35;;;;;;;46.25;23.15;;;12.40;86.10;;;;;;5021409;28;20166;-61
2022/03/26 07:09:01;;;;;;;36.58;20.52;;;13.10;83.00;;;;;;5014594;28;20033;-59
2022/03/26 07:11:26;;;;;;;40.45;22.65;;;13.20;82.80;;;;;;5010805;28;20106;-61
2022/03/26 07:13:52;;;;;;;45.78;23.33;;;13.00;82.10;;;;;;5018964;28;20674;-60
2022/03/26 07:16:17;;;;;;;40.97;23.15;;;13.00;81.70;;;;;;5010620;28;20083;-61
2022/03/26 07:18:44;;;;;;;39.78;22.98;;;13.40;80.70;;;;;;5014184;28;20396;-61
2022/03/26 07:21:09;;;;;;;34.47;22.10;;;14.20;81.10;;;;;;5014183;28;20075;-60
2022/03/26 07:23:35;;;;;;;36.67;24.10;;;14.50;78.00;;;;;;5016901;28;20424;-57
2022/03/26 07:26:01;;;;;;;39.13;23.48;;;14.70;76.50;;;;;;5030804;28;20025;-59
2022/03/26 07:28:27;;;;;;;38.80;22.60;;;14.70;75.20;;;;;;5026670;28;20109;-58
2022/03/26 07:30:52;;;;;;;37.85;22.02;;;15.10;75.80;;;;;;5017592;28;20132;-61
2022/03/26 07:33:18;;;;;;;37.03;23.15;;;15.50;73.20;;;;;;5026825;28;20424;-61
2022/03/26 07:35:44;;;;;;;32.05;21.50;;;15.80;72.00;;;;;;5014903;28;20095;-61
2022/03/26 07:38:10;;;;;;;33.50;22.50;;;16.00;72.40;;;;;;5016645;28;20032;-61
2022/03/26 07:40:36;;;;;;;36.75;22.35;;;15.80;72.30;;;;;;5024470;28;20022;-59
2022/03/26 07:43:02;;;;;;;39.35;22.52;;;16.00;72.60;;;;;;5020488;28;20090;-61
2022/03/26 07:45:28;;;;;;;34.90;22.50;;;16.30;71.90;;;;;;5002993;28;20041;-57
2022/03/26 07:47:54;;;;;;;34.85;23.35;;;16.60;70.70;;;;;;5014349;28;20057;-59
2022/03/26 07:50:19;;;;;;;36.63;22.08;;;17.10;70.20;;;;;;5023379;28;20030;-57
2022/03/26 07:52:45;;;;;;;34.63;22.88;;;17.00;69.30;;;;;;5030832;28;20060;-58
2022/03/26 07:55:10;;;;;;;36.22;22.55;;;17.30;69.00;;;;;;5016534;28;20037;-57
2022/03/26 07:57:36;;;;;;;29.27;20.23;;;17.50;69.10;;;;;;5013292;28;20034;-57
2022/03/26 08:00:04;;;;;;;33.22;21.35;;;17.90;69.10;;;;;;5025424;28;20163;-58
2022/03/26 08:02:29;;;;;;;32.83;21.17;;;18.10;69.40;;;;;;5014517;28;20022;-57
2022/03/26 08:04:55;;;;;;;35.95;21.65;;;17.50;69.90;;;;;;5025899;28;20036;-58
2022/03/26 08:07:21;;;;;;;35.28;21.42;;;18.50;68.50;;;;;;5020281;28;20036;-59
2022/03/26 08:09:47;;;;;;;35.78;22.95;;;18.00;69.60;;;;;;5020823;28;20030;-59
2022/03/26 08:12:13;;;;;;;36.08;21.80;;;18.00;70.50;;;;;;5017871;28;20038;-59
2022/03/26 08:14:39;;;;;;;32.95;22.65;;;17.90;68.70;;;;;;5021890;28;20076;-60
2022/03/26 08:17:04;;;;;;;30.73;22.25;;;18.50;67.90;;;;;;5025021;28;20104;-59
2022/03/26 08:19:32;;;;;;;32.30;22.38;;;18.20;68.50;;;;;;5022908;28;20022;-58
2022/03/26 08:21:58;;;;;;;35.80;22.80;;;18.60;67.50;;;;;;5012893;28;20018;-60
2022/03/26 08:24:23;;;;;;;37.42;22.58;;;18.60;68.30;;;;;;5019236;28;20101;-59
2022/03/26 08:26:49;;;;;;;37.47;21.65;;;19.10;67.50;;;;;;5017947;28;20029;-58
2022/03/26 08:29:14;;;;;;;32.10;22.38;;;18.90;67.00;;;;;;5025423;28;20070;-60
2022/03/26 08:31:40;;;;;;;36.28;23.40;;;19.00;66.50;;;;;;5020827;28;20036;-60
2022/03/26 08:34:05;;;;;;;40.50;23.55;;;18.80;65.90;;;;;;5017224;28;20045;-58
2022/03/26 08:36:31;;;;;;;34.50;22.08;;;18.60;66.10;;;;;;5012192;28;20042;-59
2022/03/26 08:38:57;;;;;;;35.90;23.20;;;19.20;67.70;;;;;;5018297;28;20109;-59
2022/03/26 08:41:23;;;;;;;36.15;21.98;;;19.80;65.60;;;;;;5013233;28;20033;-59
2022/03/26 08:43:50;;;;;;;39.35;23.50;;;19.50;66.10;;;;;;5020531;28;20488;-57
2022/03/26 08:46:17;;;;;;;35.78;23.85;;;19.40;67.10;;;;;;5002967;28;20041;-57
2022/03/26 08:48:42;;;;;;;33.53;23.65;;;19.40;66.60;;;;;;5028279;28;20087;-59
2022/03/26 08:51:08;;;;;;;36.58;20.85;;;19.70;66.70;;;;;;5019767;28;20422;-59
2022/03/26 08:53:34;;;;;;;36.30;21.88;;;19.90;66.60;;;;;;5016140;28;20088;-59
2022/03/26 08:56:00;;;;;;;40.08;23.30;;;20.60;67.00;;;;;;5012294;28;20124;-60
2022/03/26 08:58:26;;;;;;;35.95;22.10;;;20.10;65.90;;;;;;5016424;28;20036;-59
2022/03/26 09:00:52;;;;;;;37.25;23.45;;;20.10;65.40;;;;;;5018027;28;20108;-59
2022/03/26 09:03:20;;;;;;;33.03;23.30;;;19.40;65.50;;;;;;5024068;28;20021;-59
2022/03/26 09:05:56;;;;;;;32.90;21.60;;;19.40;67.20;;;;;;5029091;28;20099;-59
2022/03/26 09:08:21;;;;;;;35.25;22.50;;;19.30;66.40;;;;;;5027408;28;20048;-59
2022/03/26 09:10:47;;;;;;;41.40;22.40;;;19.30;68.90;;;;;;5018942;28;20033;-60
2022/03/26 09:13:13;;;;;;;38.85;24.65;;;19.80;67.30;;;;;;5021628;28;20037;-59
2022/03/26 09:15:39;;;;;;;44.50;23.20;;;20.20;66.10;;;;;;5023078;28;20394;-59
2022/03/26 09:18:05;;;;;;;33.13;23.42;;;19.60;66.40;;;;;;5025202;28;20040;-60
2022/03/26 09:20:31;;;;;;;30.73;22.08;;;20.50;65.90;;;;;;5011930;28;20034;-59
2022/03/26 09:22:56;;;;;;;35.83;24.05;;;20.30;66.60;;;;;;5013226;28;20084;-60
2022/03/26 09:25:22;;;;;;;41.80;23.75;;;20.20;66.10;;;;;;5023743;28;20541;-55
2022/03/26 09:27:49;;;;;;;38.50;23.85;;;20.80;65.00;;;;;;5016733;28;20042;-57
2022/03/26 09:30:15;;;;;;;34.20;24.65;;;20.50;65.60;;;;;;5018542;28;20034;-59
2022/03/26 09:32:42;;;;;;;39.92;25.15;;;19.80;65.80;;;;;;5012260;28;20036;-58
2022/03/26 09:35:08;;;;;;;41.83;23.75;;;19.60;67.70;;;;;;5020109;28;20572;-58
2022/03/26 09:37:34;;;;;;;40.50;24.20;;;19.40;67.40;;;;;;5023339;28;20026;-59
2022/03/26 09:40:02;;;;;;;45.40;25.65;;;19.50;67.20;;;;;;5013467;28;20024;-58
2022/03/26 09:42:28;;;;;;;35.70;23.25;;;19.70;66.90;;;;;;5017872;28;20028;-59
2022/03/26 09:44:56;;;;;;;37.92;25.42;;;20.30;64.60;;;;;;5003807;28;20029;-59
2022/03/26 09:47:22;;;;;;;36.28;21.60;;;20.20;64.60;;;;;;5018904;28;20029;-58
2022/03/26 09:49:48;;;;;;;34.75;22.70;;;20.40;65.60;;;;;;5030588;28;20041;-59
2022/03/26 09:52:13;;;;;;;39.15;24.48;;;20.70;65.20;;;;;;5022390;28;20420;-60
2022/03/26 09:54:39;;;;;;;38.45;23.40;;;20.40;64.80;;;;;;5018377;28;20030;-60
2022/03/26 09:57:04;;;;;;;44.00;24.67;;;20.90;61.80;;;;;;5013060;28;20049;-58
2022/03/26 09:59:30;;;;;;;43.60;23.17;;;20.60;62.10;;;;;;5015898;28;20030;-58
2022/03/26 10:01:56;;;;;;;38.38;23.77;;;20.90;62.10;;;;;;5027148;28;20396;-58
2022/03/26 10:04:23;;;;;;;46.83;25.35;;;20.90;59.20;;;;;;5022129;28;20018;-58
2022/03/26 10:06:57;;;;;;;39.13;23.75;;;20.90;60.60;;;;;;5021850;28;20488;-59
2022/03/26 10:09:38;;;;;;;41.15;23.10;;;20.80;61.10;;;;;;5028671;28;20056;-59
2022/03/26 10:12:06;;;;;;;39.03;23.98;;;21.10;59.50;;;;;;5014574;28;20037;-57
2022/03/26 10:14:57;;;;;;;40.88;23.15;;;21.50;57.90;;;;;;5028611;28;20108;-59
2022/03/26 10:17:27;;;;;;;43.63;22.80;;;21.70;56.90;;;;;;5011668;28;20037;-58
2022/03/26 10:19:58;;;;;;;42.53;23.50;;;21.90;57.40;;;;;;5028286;28;20029;-59
2022/03/26 10:22:30;;;;;;;41.38;22.60;;;21.50;57.60;;;;;;5013454;28;20076;-57
2022/03/26 10:24:57;;;;;;;38.00;23.50;;;21.30;58.90;;;;;;5025503;28;20029;-58
2022/03/26 10:27:23;;;;;;;37.28;21.83;;;21.00;59.20;;;;;;5026449;28;20056;-58
2022/03/26 10:29:57;;;;;;;38.17;20.67;;;20.60;57.50;;;;;;5025699;28;20536;-58
2022/03/26 10:35:10;;;;;;;36.58;21.90;;;20.00;58.70;;;;;;5024854;28;20000;-59
2022/03/26 10:37:45;;;;;;;39.92;20.80;;;19.90;60.10;;;;;;5028747;28;20488;-59
2022/03/26 10:40:39;;;;;;;40.03;24.58;;;19.50;58.60;;;;;;5028739;28;20083;-60
2022/03/26 10:43:10;;;;;;;36.77;20.33;;;19.50;59.40;;;;;;5056214;28;20394;-61
2022/03/26 10:45:53;;;;;;;39.47;20.95;;;19.40;58.70;;;;;;5043444;28;20044;-61
2022/03/26 10:48:27;;;;;;;39.42;21.45;;;18.90;59.50;;;;;;5055306;28;20048;-57
2022/03/26 10:50:56;;;;;;;;;;;18.50;59.90;;;;;;5058355;28;20547;-60
2022/03/26 10:53:21;;;;;;;37.72;20.00;;;18.70;61.60;;;;;;5056144;28;19997;-60
2022/03/26 10:55:48;;;;;;;32.75;20.00;;;18.70;60.90;;;;;;5061191;28;20548;-61
2022/03/26 10:58:15;;;;;;;42.15;19.77;;;18.90;61.00;;;;;;5062193;28;20028;-57
2022/03/26 11:00:42;;;;;;;35.15;19.52;;;18.80;60.40;;;;;;5061941;28;20032;-58
2022/03/26 11:03:09;;;;;;;34.55;20.15;;;18.90;62.10;;;;;;5061805;28;20364;-58
2022/03/26 11:05:34;;;;;;;29.00;19.73;;;18.90;60.00;;;;;;5065452;28;20392;-58
2022/03/26 11:08:01;;;;;;;34.92;19.75;;;18.90;61.80;;;;;;5065060;28;20025;-60
2022/03/26 11:10:30;;;;;;;37.45;21.98;;;18.90;61.20;;;;;;5063943;28;20028;-61
2022/03/26 11:12:58;;;;;;;33.00;19.58;;;18.90;61.40;;;;;;5065020;28;20041;-61
2022/03/26 11:15:31;;;;;;;39.17;19.83;;;18.90;61.20;;;;;;5063659;28;20047;-61
2022/03/26 11:18:11;;;;;;;38.47;21.10;;;18.70;61.80;;;;;;5060090;28;20021;-59
2022/03/26 11:20:56;;;;;;;36.58;20.50;;;18.60;62.60;;;;;;5064363;28;20538;-58
2022/03/26 11:23:41;;;;;;;36.83;20.27;;;18.50;61.50;;;;;;5060470;28;20025;-61
2022/03/26 11:26:21;;;;;;;30.42;19.52;;;18.70;61.50;;;;;;5059007;28;20495;-57
2022/03/26 11:29:13;;;;;;;34.35;20.73;;;18.70;63.40;;;;;;5063639;28;20021;-58
2022/03/26 11:31:56;;;;;;;38.88;20.05;;;18.80;60.80;;;;;;5062385;28;20123;-60
2022/03/26 11:34:22;;;;;;;43.67;20.23;;;18.80;61.20;;;;;;5069949;28;20020;-59
2022/03/26 11:36:50;;;;;;;37.53;20.65;;;18.70;62.90;;;;;;5068126;28;20518;-58
2022/03/26 11:39:18;;;;;;;41.08;19.90;;;18.70;62.40;;;;;;5065393;28;20020;-58
2022/03/26 11:41:44;;;;;;;36.15;19.98;;;18.80;61.50;;;;;;5055950;28;20040;-59
2022/03/26 11:44:11;;;;;;;36.85;21.40;;;18.90;61.00;;;;;;5062954;28;20029;-58
2022/03/26 11:52:26;;;;;;;36.08;18.10;;;18.60;60.70;;;;;;5073444;28;20031;-58
2022/03/26 11:55:07;;;;;;;30.30;17.20;;;18.60;60.80;;;;;;5064807;28;20564;-60
2022/03/26 11:57:32;;;;;;;34.53;20.02;;;18.80;62.20;;;;;;5062503;28;20016;-56
2022/03/26 11:59:59;;;;;;;33.28;17.58;;;18.70;60.00;;;;;;5061452;28;20376;-59
2022/03/26 12:02:27;;;;;;;32.40;17.35;;;18.80;61.10;;;;;;5061949;28;20495;-60
2022/03/26 12:04:57;;;;;;;24.95;15.50;;;18.80;60.80;;;;;;5063168;28;20100;-60
2022/03/26 12:07:27;;;;;;;26.17;14.82;;;18.70;59.80;;;;;;5060443;28;20242;-57
2022/03/26 12:10:17;;;;;;;25.55;13.20;;;18.80;59.60;;;;;;5067045;28;20039;-59
2022/03/26 12:12:48;;;;;;;25.77;13.88;;;18.70;59.60;;;;;;5061235;28;20029;-61
2022/03/26 12:15:14;;;;;;;23.60;12.63;;;18.80;59.70;;;;;;5069942;28;20025;-59
2022/03/26 12:17:54;;;;;;;28.83;13.27;;;18.80;60.10;;;;;;5069346;28;20055;-58
2022/03/26 12:20:34;;;;;;;25.50;11.73;;;18.80;60.70;;;;;;5054888;28;20105;-59
2022/03/26 12:23:06;;;;;;;23.55;11.05;;;18.60;59.60;;;;;;5065257;28;20423;-58
2022/03/26 12:25:34;;;;;;;22.67;12.60;;;18.50;59.50;;;;;;5066237;28;20108;-56
2022/03/26 12:28:00;;;;;;;29.48;13.82;;;18.40;58.10;;;;;;5053723;28;20029;-59
2022/03/26 12:30:26;;;;;;;24.00;11.30;;;18.30;58.10;;;;;;5055622;28;20078;-60
2022/03/26 12:32:51;;;;;;;19.50;11.20;;;18.30;59.50;;;;;;5067958;28;20551;-60
2022/03/26 12:35:17;;;;;;;26.35;10.82;;;18.30;58.00;;;;;;5065277;28;20043;-58
2022/03/26 12:37:48;;;;;;;25.52;11.13;;;18.30;58.50;;;;;;5052406;28;20064;-59
2022/03/26 12:40:13;;;;;;;17.10;9.82;;;18.30;59.20;;;;;;5053370;28;20025;-58
2022/03/26 12:42:39;;;;;;;23.75;10.65;;;18.30;58.20;;;;;;5052925;28;20040;-60
2022/03/26 12:45:16;;;;;;;15.32;9.43;;;18.40;59.50;;;;;;5065039;28;20024;-54